Time;durP1;ratioP1;P1;durP2;ratioP2;P2;SDS_P1;SDS_P2;PMS_P1;PMS_P2;Temp;Humidity;BMP_temperature;BMP_pressure;BME280_temperature;BME280_humidity;BME280_pressure;Samples;Min_cycle;Max_cycle;Signal;HPM_P1;HPM_P2
2023/01/11 00:00:19;;;;;;;28.30;13.60;;;;;;;;;;5015808;28;20096;-73
2023/01/11 00:02:45;;;;;;;26.35;15.95;;;;;;;;;;5015734;28;20046;-73
2023/01/11 00:05:12;;;;;;;28.60;12.98;;;;;;;;;;5015196;28;20570;-73
2023/01/11 00:07:39;;;;;;;21.67;9.50;;;;;;;;;;5014989;28;20050;-73
2023/01/11 00:10:07;;;;;;;17.63;9.38;;;;;;;;;;5015071;28;20489;-73
2023/01/11 00:12:33;;;;;;;20.10;8.93;;;;;;;;;;5015623;28;20042;-73
2023/01/11 00:14:59;;;;;;;18.40;10.60;;;;;;;;;;5014804;28;20042;-73
2023/01/11 00:17:25;;;;;;;20.55;10.07;;;;;;;;;;5015576;28;20033;-73
2023/01/11 00:19:51;;;;;;;24.33;11.00;;;;;;;;;;5015033;28;20121;-73
2023/01/11 00:22:18;;;;;;;23.67;10.48;;;;;;;;;;5015379;28;20041;-73
2023/01/11 00:24:45;;;;;;;28.73;11.18;;;;;;;;;;5014171;28;20081;-73
2023/01/11 00:27:11;;;;;;;21.27;10.88;;;;;;;;;;5014956;28;20042;-73
2023/01/11 00:29:37;;;;;;;46.35;24.80;;;;;;;;;;5014729;28;20052;-73
2023/01/11 00:32:03;;;;;;;18.63;9.32;;;;;;;;;;5014380;28;20049;-73
2023/01/11 00:34:29;;;;;;;12.95;6.70;;;;;;;;;;5014815;28;20077;-73
2023/01/11 00:36:55;;;;;;;17.38;7.80;;;;;;;;;;5014984;28;20120;-73
2023/01/11 00:39:21;;;;;;;16.75;8.32;;;;;;;;;;5014364;28;20070;-72
2023/01/11 00:50:02;;;;;;;17.60;7.88;;;;;;;;;;5014120;28;20117;-73
2023/01/11 00:52:28;;;;;;;15.77;8.43;;;;;;;;;;5015014;28;20056;-73
2023/01/11 00:54:54;;;;;;;19.33;8.13;;;;;;;;;;5015037;28;20489;-73
2023/01/11 00:57:21;;;;;;;20.58;8.93;;;;;;;;;;5014603;28;20038;-73
2023/01/11 00:59:47;;;;;;;18.90;8.95;;;;;;;;;;5014301;28;20049;-73
2023/01/11 01:02:13;;;;;;;15.80;8.40;;;;;;;;;;5014600;28;20481;-73
2023/01/11 01:04:39;;;;;;;15.40;7.97;;;;;;;;;;5014525;28;20509;-73
2023/01/11 01:07:05;;;;;;;17.30;6.80;;;;;;;;;;5014348;28;20041;-73
2023/01/11 01:09:32;;;;;;;17.80;9.63;;;;;;;;;;5014158;28;20404;-73
2023/01/11 01:11:58;;;;;;;15.35;7.28;;;;;;;;;;5014400;28;20050;-73
2023/01/11 01:14:24;;;;;;;17.52;7.70;;;;;;;;;;5014435;28;20046;-73
2023/01/11 01:16:51;;;;;;;19.73;7.28;;;;;;;;;;5014655;28;20045;-73
2023/01/11 01:19:18;;;;;;;18.02;7.10;;;;;;;;;;5014426;28;20041;-73
2023/01/11 01:21:44;;;;;;;15.88;6.75;;;;;;;;;;5014416;28;20116;-73
2023/01/11 01:24:10;;;;;;;14.80;6.90;;;;;;;;;;5014298;28;20062;-73
2023/01/11 01:26:36;;;;;;;15.80;6.45;;;;;;;;;;5014044;28;20033;-73
2023/01/11 01:29:03;;;;;;;13.82;6.28;;;;;;;;;;5014314;28;20037;-73
2023/01/11 01:31:29;;;;;;;13.30;6.72;;;;;;;;;;5013958;28;20048;-73
2023/01/11 01:33:55;;;;;;;16.25;6.00;;;;;;;;;;5014295;28;20405;-73
2023/01/11 01:36:21;;;;;;;19.17;7.93;;;;;;;;;;5014223;28;20044;-73
2023/01/11 01:38:48;;;;;;;15.25;6.70;;;;;;;;;;5014338;28;20066;-73
2023/01/11 01:41:14;;;;;;;15.70;7.57;;;;;;;;;;5014148;28;20096;-73
2023/01/11 01:43:48;;;;;;;11.50;6.63;;;;;;;;;;5017588;28;20038;-73
2023/01/11 01:46:14;;;;;;;13.73;6.60;;;;;;;;;;5017807;28;20073;-73
2023/01/11 01:48:43;;;;;;;15.70;6.70;;;;;;;;;;5017713;28;20041;-73
2023/01/11 01:51:11;;;;;;;16.40;7.15;;;;;;;;;;5017582;28;20041;-73
2023/01/11 01:53:40;;;;;;;15.48;7.07;;;;;;;;;;5017823;28;20049;-73
2023/01/11 01:56:08;;;;;;;16.05;6.25;;;;;;;;;;5016986;28;20089;-73
2023/01/11 01:58:36;;;;;;;13.98;6.07;;;;;;;;;;5015962;28;20048;-73
2023/01/11 02:03:47;;;;;;;13.65;6.20;;;;;;;;;;5016888;28;20476;-73
2023/01/11 02:06:14;;;;;;;14.57;6.57;;;;;;;;;;5016765;28;20030;-73
2023/01/11 02:08:42;;;;;;;12.98;6.97;;;;;;;;;;5016546;28;20053;-73
2023/01/11 02:11:28;;;;;;;15.60;7.38;;;;;;;;;;5017755;28;20485;-73
2023/01/11 02:13:55;;;;;;;14.70;5.85;;;;;;;;;;5017558;28;20056;-73
2023/01/11 02:16:21;;;;;;;15.30;6.68;;;;;;;;;;5017797;28;20132;-73
2023/01/11 02:18:48;;;;;;;12.75;5.88;;;;;;;;;;5017175;28;20041;-73
2023/01/11 02:21:26;;;;;;;15.85;6.47;;;;;;;;;;5017694;28;20050;-73
2023/01/11 02:24:11;;;;;;;13.82;6.18;;;;;;;;;;5016722;28;20466;-73
2023/01/11 02:27:15;;;;;;;15.30;5.43;;;;;;;;;;5017039;28;20492;-73
2023/01/11 02:29:58;;;;;;;15.65;6.05;;;;;;;;;;4994638;28;20113;-73
2023/01/11 02:32:32;;;;;;;12.02;5.05;;;;;;;;;;4995408;28;20042;-73
2023/01/11 02:35:09;;;;;;;12.82;6.07;;;;;;;;;;5009030;28;20156;-73
2023/01/11 02:37:49;;;;;;;11.60;5.90;;;;;;;;;;5017015;28;20038;-73
2023/01/11 02:40:27;;;;;;;11.80;6.00;;;;;;;;;;5016728;28;20088;-73
2023/01/11 02:45:57;;;;;;;12.73;4.82;;;;;;;;;;5016182;28;20088;-73
2023/01/11 02:48:31;;;;;;;9.77;4.35;;;;;;;;;;5016692;28;20048;-73
2023/01/11 02:50:57;;;;;;;11.73;4.47;;;;;;;;;;5016832;28;20042;-73
2023/01/11 02:53:42;;;;;;;10.95;4.22;;;;;;;;;;5015566;28;20072;-73
2023/01/11 02:56:11;;;;;;;8.82;4.20;;;;;;;;;;5016488;28;20041;-73
2023/01/11 02:58:39;;;;;;;12.80;5.10;;;;;;;;;;5016667;28;20049;-73
2023/01/11 03:01:05;;;;;;;13.18;4.72;;;;;;;;;;5016101;28;20048;-73
2023/01/11 03:03:32;;;;;;;16.48;4.63;;;;;;;;;;5016336;28;20489;-73
2023/01/11 03:05:59;;;;;;;11.38;4.63;;;;;;;;;;5016572;28;20104;-73
2023/01/11 03:08:34;;;;;;;12.55;3.83;;;;;;;;;;5016046;28;20517;-73
2023/01/11 03:11:13;;;;;;;10.25;4.38;;;;;;;;;;5016168;28;20113;-73
2023/01/11 03:13:58;;;;;;;23.00;9.73;;;;;;;;;;5016148;28;20497;-73
2023/01/11 03:16:25;;;;;;;13.18;6.05;;;;;;;;;;5016549;28;20113;-73
2023/01/11 03:18:53;;;;;;;23.80;4.53;;;;;;;;;;5016005;28;20046;-73
2023/01/11 03:21:28;;;;;;;13.32;4.70;;;;;;;;;;5015935;28;20041;-73
2023/01/11 03:24:27;;;;;;;10.93;4.72;;;;;;;;;;5016004;28;20061;-73
2023/01/11 03:26:53;;;;;;;10.50;3.90;;;;;;;;;;5004760;28;20069;-73
2023/01/11 03:29:48;;;;;;;9.02;3.72;;;;;;;;;;5015847;28;20442;-73
2023/01/11 03:32:41;;;;;;;8.15;3.38;;;;;;;;;;5011109;28;20042;-73
2023/01/11 03:35:15;;;;;;;14.70;4.25;;;;;;;;;;5014799;28;20046;-73
2023/01/11 03:37:53;;;;;;;16.55;4.40;;;;;;;;;;5016107;28;20034;-73
2023/01/11 03:40:30;;;;;;;13.13;4.47;;;;;;;;;;5016303;28;20100;-73
2023/01/11 03:43:11;;;;;;;16.67;3.97;;;;;;;;;;5016375;28;20030;-73
2023/01/11 03:45:49;;;;;;;11.00;4.25;;;;;;;;;;5015682;28;20037;-73
2023/01/11 03:48:35;;;;;;;11.52;4.60;;;;;;;;;;5015829;28;20033;-73
2023/01/11 03:51:02;;;;;;;12.77;4.05;;;;;;;;;;5015434;28;20053;-73
2023/01/11 03:53:31;;;;;;;13.88;4.20;;;;;;;;;;5015627;28;20108;-73
2023/01/11 03:55:58;;;;;;;10.60;3.80;;;;;;;;;;5016250;28;20046;-73
2023/01/11 03:58:27;;;;;;;12.65;4.20;;;;;;;;;;5015332;28;20120;-73
2023/01/11 04:00:55;;;;;;;14.07;4.40;;;;;;;;;;5015870;28;20046;-73
2023/01/11 04:03:21;;;;;;;15.93;4.88;;;;;;;;;;5016169;28;20049;-73
2023/01/11 04:05:50;;;;;;;11.45;5.55;;;;;;;;;;5015336;28;20469;-73
2023/01/11 04:08:17;;;;;;;9.07;4.30;;;;;;;;;;5015066;28;20124;-73
2023/01/11 04:10:43;;;;;;;9.88;4.50;;;;;;;;;;5015644;28;20046;-73
2023/01/11 04:13:09;;;;;;;11.57;4.43;;;;;;;;;;5015848;28;20050;-73
2023/01/11 04:15:35;;;;;;;13.63;5.47;;;;;;;;;;5015646;28;20052;-73
2023/01/11 04:18:04;;;;;;;9.77;4.22;;;;;;;;;;5015070;28;20042;-73
2023/01/11 04:20:34;;;;;;;8.88;4.35;;;;;;;;;;5015891;28;20045;-73
2023/01/11 04:23:00;;;;;;;8.35;5.05;;;;;;;;;;5014747;28;20050;-74
2023/01/11 04:25:26;;;;;;;11.50;4.85;;;;;;;;;;5015859;28;20139;-73
2023/01/11 04:27:52;;;;;;;11.93;4.55;;;;;;;;;;5015642;28;20061;-73
2023/01/11 04:30:19;;;;;;;16.20;4.82;;;;;;;;;;5015203;28;20045;-73
2023/01/11 04:32:45;;;;;;;7.88;3.95;;;;;;;;;;5015655;28;20056;-73
2023/01/11 04:35:11;;;;;;;12.65;4.72;;;;;;;;;;5015356;28;20046;-73
2023/01/11 04:37:37;;;;;;;8.77;4.03;;;;;;;;;;5014663;28;20041;-73
2023/01/11 04:40:03;;;;;;;9.27;4.93;;;;;;;;;;5014797;28;20515;-73
2023/01/11 04:42:29;;;;;;;7.55;3.80;;;;;;;;;;5015384;28;20057;-73
2023/01/11 04:44:56;;;;;;;8.27;3.45;;;;;;;;;;5015298;28;20064;-73
2023/01/11 04:47:22;;;;;;;7.07;3.65;;;;;;;;;;5014995;28;20073;-73
2023/01/11 04:49:49;;;;;;;13.32;4.20;;;;;;;;;;5014986;28;20045;-73
2023/01/11 04:52:16;;;;;;;10.95;4.85;;;;;;;;;;5015010;28;20062;-73
2023/01/11 04:54:43;;;;;;;11.77;5.03;;;;;;;;;;5014926;28;20042;-73
2023/01/11 04:57:12;;;;;;;10.50;4.20;;;;;;;;;;5014755;28;20087;-73
2023/01/11 04:59:39;;;;;;;6.95;3.25;;;;;;;;;;5014888;28;20485;-73
2023/01/11 05:02:05;;;;;;;9.20;3.72;;;;;;;;;;5014868;28;20080;-73
2023/01/11 05:04:31;;;;;;;9.57;4.15;;;;;;;;;;5014822;28;20048;-73
2023/01/11 05:06:57;;;;;;;8.25;3.80;;;;;;;;;;5014819;28;20042;-73
2023/01/11 05:09:23;;;;;;;8.57;4.03;;;;;;;;;;5014373;28;20073;-73
2023/01/11 05:11:49;;;;;;;7.15;3.70;;;;;;;;;;5014419;28;20073;-73
2023/01/11 05:14:16;;;;;;;15.68;3.50;;;;;;;;;;5014862;28;20052;-73
2023/01/11 05:16:42;;;;;;;9.45;3.70;;;;;;;;;;5015212;28;20046;-73
2023/01/11 05:19:09;;;;;;;17.38;8.65;;;;;;;;;;5018578;28;20041;-73
2023/01/11 05:21:41;;;;;;;13.30;4.70;;;;;;;;;;5019081;28;20050;-73
2023/01/11 05:24:10;;;;;;;10.18;4.05;;;;;;;;;;5018494;28;20061;-73
2023/01/11 05:26:38;;;;;;;10.50;3.85;;;;;;;;;;5018474;28;20092;-73
2023/01/11 05:29:05;;;;;;;10.35;3.55;;;;;;;;;;5018193;28;20045;-74
2023/01/11 05:31:32;;;;;;;9.32;3.47;;;;;;;;;;5017986;28;20389;-73
2023/01/11 05:33:58;;;;;;;8.63;3.22;;;;;;;;;;5017867;28;20050;-73
2023/01/11 05:36:25;;;;;;;8.70;3.50;;;;;;;;;;5018177;28;20482;-73
2023/01/11 05:38:52;;;;;;;13.13;4.03;;;;;;;;;;5017745;28;20179;-73
2023/01/11 05:41:19;;;;;;;9.68;5.05;;;;;;;;;;5017861;28;20077;-73
2023/01/11 05:46:32;;;;;;;12.55;5.05;;;;;;;;;;5017743;28;20099;-73
2023/01/11 05:48:58;;;;;;;12.02;3.90;;;;;;;;;;5017867;28;20049;-74
2023/01/11 05:51:24;;;;;;;7.63;4.30;;;;;;;;;;5017867;28;20049;-73
2023/01/11 05:53:54;;;;;;;13.73;4.63;;;;;;;;;;5017588;28;20097;-73
2023/01/11 05:56:20;;;;;;;7.80;4.43;;;;;;;;;;5018207;28;20065;-73
2023/01/11 05:58:50;;;;;;;8.02;3.97;;;;;;;;;;5017455;28;20476;-73
2023/01/11 06:01:17;;;;;;;9.93;4.88;;;;;;;;;;5017806;28;20056;-73
2023/01/11 06:03:43;;;;;;;8.55;4.22;;;;;;;;;;5017810;28;20077;-73
2023/01/11 06:06:10;;;;;;;10.98;4.32;;;;;;;;;;5017660;28;20046;-73
2023/01/11 06:08:36;;;;;;;6.57;3.90;;;;;;;;;;5017370;28;20067;-73
2023/01/11 06:11:02;;;;;;;12.45;4.32;;;;;;;;;;5017539;28;20124;-73
2023/01/11 06:13:28;;;;;;;10.95;4.38;;;;;;;;;;5017887;28;20128;-73
2023/01/11 06:15:58;;;;;;;8.73;3.97;;;;;;;;;;5017238;28;20052;-73
2023/01/11 06:18:24;;;;;;;6.38;4.10;;;;;;;;;;5017327;28;20070;-73
2023/01/11 06:20:51;;;;;;;12.18;4.82;;;;;;;;;;5017421;28;20046;-73
2023/01/11 06:23:17;;;;;;;11.77;4.95;;;;;;;;;;5016620;28;20054;-73
2023/01/11 06:25:43;;;;;;;10.10;5.30;;;;;;;;;;5017073;28;20060;-73
2023/01/11 06:28:10;;;;;;;8.73;5.20;;;;;;;;;;5016887;28;20070;-73
2023/01/11 06:30:36;;;;;;;7.15;4.45;;;;;;;;;;5016585;28;20123;-73
2023/01/11 06:33:05;;;;;;;7.47;3.90;;;;;;;;;;5016613;28;20452;-73
2023/01/11 06:35:39;;;;;;;6.97;4.22;;;;;;;;;;5016824;28;20497;-73
2023/01/11 06:38:05;;;;;;;7.80;3.67;;;;;;;;;;5034305;28;20047;-73
2023/01/11 06:40:32;;;;;;;9.30;4.25;;;;;;;;;;5045112;28;20033;-73
2023/01/11 06:42:58;;;;;;;7.18;3.75;;;;;;;;;;5045365;28;20183;-73
2023/01/11 06:45:24;;;;;;;34.35;9.48;;;;;;;;;;5046407;28;20044;-73
2023/01/11 06:47:50;;;;;;;20.60;6.57;;;;;;;;;;5044853;28;20041;-73
2023/01/11 06:50:16;;;;;;;22.58;7.97;;;;;;;;;;5045157;28;20037;-73
2023/01/11 06:52:42;;;;;;;38.00;10.07;;;;;;;;;;5046464;28;20064;-73
2023/01/11 06:55:09;;;;;;;30.13;8.73;;;;;;;;;;5044719;28;20041;-73
2023/01/11 06:57:35;;;;;;;29.25;8.55;;;;;;;;;;5045545;28;20048;-73
2023/01/11 07:00:02;;;;;;;11.63;3.90;;;;;;;;;;5046405;28;20033;-73
2023/01/11 07:02:28;;;;;;;18.10;6.43;;;;;;;;;;5047555;28;20052;-73
2023/01/11 07:04:54;;;;;;;24.90;11.50;;;;;;;;;;5055913;28;20041;-72
2023/01/11 07:07:20;;;;;;;24.35;11.20;;;;;;;;;;5055819;28;20045;-73
2023/01/11 07:09:47;;;;;;;23.85;9.75;;;;;;;;;;5055950;28;20110;-73
2023/01/11 07:12:13;;;;;;;23.70;10.20;;;;;;;;;;5055726;28;20102;-74
2023/01/11 07:14:39;;;;;;;18.88;8.40;;;;;;;;;;5055709;28;20049;-72
2023/01/11 07:17:05;;;;;;;17.70;7.43;;;;;;;;;;5036505;28;20385;-73
2023/01/11 07:19:31;;;;;;;14.15;6.55;;;;;;;;;;5034762;28;20109;-72
2023/01/11 07:21:57;;;;;;;11.38;6.40;;;;;;;;;;5035312;28;20050;-72
2023/01/11 07:24:24;;;;;;;32.22;9.15;;;;;;;;;;5035390;28;20123;-72
2023/01/11 07:26:51;;;;;;;15.60;7.15;;;;;;;;;;5035926;28;20033;-72
2023/01/11 07:29:17;;;;;;;17.73;6.65;;;;;;;;;;5035898;28;20095;-72
2023/01/11 07:31:43;;;;;;;16.42;7.65;;;;;;;;;;5035834;28;20041;-72
2023/01/11 07:34:09;;;;;;;26.20;11.13;;;;;;;;;;5036142;28;20045;-72
2023/01/11 07:36:38;;;;;;;20.42;9.63;;;;;;;;;;5035730;28;20060;-72
2023/01/11 07:39:04;;;;;;;22.83;9.60;;;;;;;;;;5035196;28;20124;-73
2023/01/11 07:44:15;;;;;;;33.03;12.95;;;;;;;;;;5035129;28;20451;-72
2023/01/11 07:46:41;;;;;;;18.20;8.95;;;;;;;;;;5035325;28;20132;-72
2023/01/11 07:49:07;;;;;;;16.73;8.00;;;;;;;;;;5034280;28;20384;-72
2023/01/11 07:51:33;;;;;;;19.35;9.32;;;;;;;;;;5035213;28;20047;-72
2023/01/11 07:54:01;;;;;;;16.55;10.70;;;;;;;;;;5035506;28;20049;-73
2023/01/11 07:56:28;;;;;;;17.00;11.95;;;;;;;;;;5036030;28;20060;-72
2023/01/11 07:58:54;;;;;;;21.60;12.63;;;;;;;;;;5035116;28;20044;-72
2023/01/11 08:01:20;;;;;;;22.98;12.93;;;;;;;;;;5035366;28;20136;-72
2023/01/11 08:03:46;;;;;;;21.55;12.77;;;;;;;;;;5035951;28;20072;-72
2023/01/11 08:06:15;;;;;;;26.02;17.75;;;;;;;;;;5034993;28;20049;-72
2023/01/11 08:08:42;;;;;;;27.85;17.63;;;;;;;;;;5035056;28;20044;-73
2023/01/11 08:16:38;;;;;;;36.92;19.70;;;;;;;;;;5023684;28;20044;-72
2023/01/11 08:19:04;;;;;;;27.58;17.48;;;;;;;;;;5014914;28;20040;-72
2023/01/11 08:21:31;;;;;;;26.45;16.08;;;;;;;;;;5034457;28;20045;-72
2023/01/11 08:23:57;;;;;;;23.83;12.48;;;;;;;;;;5033294;28;20099;-72
2023/01/11 08:26:25;;;;;;;22.58;13.40;;;;;;;;;;5032764;28;20091;-72
2023/01/11 08:28:51;;;;;;;21.13;12.73;;;;;;;;;;5033676;28;20411;-73
2023/01/11 08:31:17;;;;;;;29.38;13.82;;;;;;;;;;5034083;28;20543;-75
2023/01/11 08:33:43;;;;;;;19.35;12.13;;;;;;;;;;5033426;28;20077;-73
2023/01/11 08:36:10;;;;;;;20.52;12.15;;;;;;;;;;5033676;28;20577;-74
2023/01/11 08:38:36;;;;;;;22.27;13.57;;;;;;;;;;5033000;28;20073;-74
2023/01/11 08:41:09;;;;;;;24.65;13.95;;;;;;;;;;5033233;28;20041;-74
2023/01/11 08:43:42;;;;;;;26.80;13.85;;;;;;;;;;5034263;28;20100;-75
2023/01/11 08:46:08;;;;;;;20.17;13.30;;;;;;;;;;5033324;28;20079;-75
2023/01/11 08:48:35;;;;;;;18.42;12.45;;;;;;;;;;5033780;28;20043;-74
2023/01/11 08:51:01;;;;;;;21.98;15.07;;;;;;;;;;5032833;28;20044;-74
2023/01/11 08:53:27;;;;;;;28.77;15.77;;;;;;;;;;5036650;28;20538;-73
2023/01/11 08:55:54;;;;;;;37.38;22.63;;;;;;;;;;5037490;28;20128;-73
2023/01/11 08:58:20;;;;;;;25.90;15.25;;;;;;;;;;5037435;28;20071;-73
2023/01/11 09:00:46;;;;;;;26.95;19.08;;;;;;;;;;5037769;28;20045;-73
2023/01/11 09:03:13;;;;;;;24.50;16.80;;;;;;;;;;5037793;28;20515;-73
2023/01/11 09:05:40;;;;;;;25.25;17.17;;;;;;;;;;5036945;28;20631;-73
2023/01/11 09:08:07;;;;;;;22.92;15.68;;;;;;;;;;5037298;28;20048;-73
2023/01/11 09:10:33;;;;;;;31.85;17.80;;;;;;;;;;5037001;28;20044;-75
2023/01/11 09:13:00;;;;;;;46.53;28.40;;;;;;;;;;5037076;28;20045;-74
2023/01/11 09:15:26;;;;;;;37.13;19.85;;;;;;;;;;5037007;28;20049;-74
2023/01/11 09:17:52;;;;;;;33.35;19.33;;;;;;;;;;5037719;28;20573;-74
2023/01/11 09:20:19;;;;;;;37.35;21.83;;;;;;;;;;5037170;28;20508;-74
2023/01/11 09:22:46;;;;;;;31.63;19.17;;;;;;;;;;5036511;28;20382;-73
2023/01/11 09:25:12;;;;;;;28.88;15.93;;;;;;;;;;5037387;28;20055;-74
2023/01/11 09:27:42;;;;;;;25.70;14.50;;;;;;;;;;5035598;28;20156;-74
2023/01/11 09:30:09;;;;;;;22.90;13.18;;;;;;;;;;5036875;28;20079;-75
2023/01/11 09:32:35;;;;;;;22.20;14.40;;;;;;;;;;5037129;28;20045;-75
2023/01/11 09:35:02;;;;;;;24.98;14.02;;;;;;;;;;5037826;28;20039;-75
2023/01/11 09:37:28;;;;;;;19.52;12.88;;;;;;;;;;5037081;28;20574;-75
2023/01/11 09:39:56;;;;;;;34.22;18.38;;;;;;;;;;5036543;28;20033;-75
2023/01/11 09:42:38;;;;;;;39.33;20.85;;;;;;;;;;5034886;28;20041;-73
2023/01/11 09:45:06;;;;;;;42.17;22.20;;;;;;;;;;5037244;28;20511;-73
2023/01/11 09:47:32;;;;;;;63.55;31.38;;;;;;;;;;5037514;28;20041;-73
2023/01/11 09:50:01;;;;;;;34.33;17.65;;;;;;;;;;5036729;28;20049;-73
2023/01/11 09:52:28;;;;;;;39.63;19.33;;;;;;;;;;5036831;28;20046;-73
2023/01/11 09:54:56;;;;;;;42.45;20.55;;;;;;;;;;5037255;28;20045;-73
2023/01/11 09:57:26;;;;;;;72.53;40.03;;;;;;;;;;5035245;28;20092;-74
2023/01/11 10:00:03;;;;;;;57.33;29.63;;;;;;;;;;5036864;28;20496;-74
2023/01/11 10:02:30;;;;;;;74.63;33.28;;;;;;;;;;5036799;28;20052;-74
2023/01/11 10:05:06;;;;;;;62.88;29.10;;;;;;;;;;5036683;28;20049;-74
2023/01/11 10:07:53;;;;;;;62.40;26.38;;;;;;;;;;5036018;28;20125;-74
2023/01/11 10:10:42;;;;;;;80.40;36.90;;;;;;;;;;5036078;28;20071;-74
2023/01/11 10:13:17;;;;;;;63.30;30.00;;;;;;;;;;5036725;28;20051;-73
2023/01/11 10:15:50;;;;;;;26.60;13.27;;;;;;;;;;5035956;28;20045;-75
2023/01/11 10:18:28;;;;;;;27.27;12.48;;;;;;;;;;5037029;28;20049;-74
2023/01/11 10:20:59;;;;;;;83.80;37.92;;;;;;;;;;5036921;28;20048;-74
2023/01/11 10:23:27;;;;;;;;;;;;;;;;;;5036041;28;20111;-75
2023/01/11 10:25:55;;;;;;;24.27;11.02;;;;;;;;;;5035376;28;19999;-75
2023/01/11 10:28:30;;;;;;;25.13;12.57;;;;;;;;;;5035369;28;20131;-75
2023/01/11 10:39:54;;;;;;;6.22;3.63;;;;;;;;;;5035970;28;20044;-75
2023/01/11 10:42:22;;;;;;;7.32;3.88;;;;;;;;;;5008372;28;20045;-75
2023/01/11 10:45:00;;;;;;;2.70;2.20;;;;;;;;;;5035535;28;20033;-75
2023/01/11 10:47:30;;;;;;;3.70;1.15;;;;;;;;;;5036021;28;20045;-74
2023/01/11 10:50:02;;;;;;;2.42;0.98;;;;;;;;;;5035866;28;20029;-75
2023/01/11 10:52:28;;;;;;;3.50;1.02;;;;;;;;;;5034943;28;20508;-75
2023/01/11 10:54:56;;;;;;;2.17;0.80;;;;;;;;;;5035370;28;20038;-73
2023/01/11 10:57:38;;;;;;;2.33;1.10;;;;;;;;;;5034847;28;20045;-73
2023/01/11 11:00:37;;;;;;;3.63;1.23;;;;;;;;;;5035699;28;20041;-73
2023/01/11 11:03:23;;;;;;;3.60;1.02;;;;;;;;;;5012207;28;20172;-73
2023/01/11 11:05:56;;;;;;;1.35;0.90;;;;;;;;;;5035209;28;20116;-74
2023/01/11 11:08:31;;;;;;;1.90;1.20;;;;;;;;;;5035163;28;20102;-76
2023/01/11 11:11:00;;;;;;;2.30;0.95;;;;;;;;;;5034813;28;20408;-76
2023/01/11 11:13:42;;;;;;;2.63;1.20;;;;;;;;;;5034959;28;20404;-77
2023/01/11 11:16:14;;;;;;;3.08;1.30;;;;;;;;;;5034585;28;20037;-76
2023/01/11 11:18:41;;;;;;;2.75;1.40;;;;;;;;;;5035368;28;20125;-76
2023/01/11 11:21:14;;;;;;;2.90;1.23;;;;;;;;;;5034910;28;20049;-76
2023/01/11 11:23:40;;;;;;;3.25;1.40;;;;;;;;;;5034943;28;20049;-76
2023/01/11 11:26:07;;;;;;;4.05;1.70;;;;;;;;;;5034653;28;20037;-76
2023/01/11 11:28:33;;;;;;;2.38;1.27;;;;;;;;;;5034591;28;20041;-76
2023/01/11 11:31:01;;;;;;;7.03;1.95;;;;;;;;;;5035068;28;20127;-75
2023/01/11 11:33:34;;;;;;;2.70;1.50;;;;;;;;;;5034448;28;20049;-76
2023/01/11 11:36:04;;;;;;;1.88;1.10;;;;;;;;;;5034786;28;20036;-77
2023/01/11 11:38:31;;;;;;;3.00;1.27;;;;;;;;;;5034506;28;20155;-76
2023/01/11 11:41:04;;;;;;;3.13;1.50;;;;;;;;;;5033559;28;20052;-76
2023/01/11 11:43:30;;;;;;;2.63;1.30;;;;;;;;;;5034780;28;20167;-76
2023/01/11 11:46:01;;;;;;;5.18;1.58;;;;;;;;;;5034368;28;20044;-76
2023/01/11 11:48:32;;;;;;;3.33;2.13;;;;;;;;;;5034840;28;20045;-76
2023/01/11 11:50:59;;;;;;;5.22;2.42;;;;;;;;;;5033790;28;20811;-76
2023/01/11 11:53:42;;;;;;;2.45;1.38;;;;;;;;;;5034807;28;20041;-76
2023/01/11 11:56:16;;;;;;;3.17;1.40;;;;;;;;;;5033866;28;20068;-75
2023/01/11 11:58:43;;;;;;;1.60;1.20;;;;;;;;;;5035037;28;20499;-76
2023/01/11 12:01:27;;;;;;;2.97;1.33;;;;;;;;;;5034712;28;20041;-77
2023/01/11 12:04:02;;;;;;;2.90;1.40;;;;;;;;;;5033299;28;20581;-76
2023/01/11 12:06:29;;;;;;;3.72;1.52;;;;;;;;;;5034869;28;20049;-77
2023/01/11 12:08:57;;;;;;;3.67;1.38;;;;;;;;;;5034746;28;20045;-76
2023/01/11 12:11:31;;;;;;;3.45;1.70;;;;;;;;;;5034598;28;20503;-77
2023/01/11 12:14:02;;;;;;;4.25;2.25;;;;;;;;;;5035080;28;20103;-76
2023/01/11 12:16:34;;;;;;;3.53;1.75;;;;;;;;;;5033336;28;20076;-77
2023/01/11 12:19:00;;;;;;;1.85;1.50;;;;;;;;;;5034859;28;20091;-76
2023/01/11 12:21:30;;;;;;;2.85;1.45;;;;;;;;;;5034837;28;20041;-76
2023/01/11 12:24:15;;;;;;;3.67;1.50;;;;;;;;;;5034459;28;20062;-76
2023/01/11 12:27:00;;;;;;;2.95;2.08;;;;;;;;;;5034289;28;20468;-76
2023/01/11 12:29:41;;;;;;;2.85;1.48;;;;;;;;;;5034760;28;20041;-77
2023/01/11 12:32:23;;;;;;;2.28;1.17;;;;;;;;;;5034348;28;20057;-77
2023/01/11 12:35:02;;;;;;;2.85;1.42;;;;;;;;;;5034623;28;20515;-76
2023/01/11 12:37:28;;;;;;;1.08;0.80;;;;;;;;;;5034445;28;20060;-76
2023/01/11 12:40:01;;;;;;;1.30;0.70;;;;;;;;;;5034429;28;20400;-76
2023/01/11 12:42:46;;;;;;;1.10;0.90;;;;;;;;;;5034846;28;20090;-76
2023/01/11 12:45:20;;;;;;;1.88;0.70;;;;;;;;;;5034519;28;20041;-76
2023/01/11 12:47:58;;;;;;;0.73;0.50;;;;;;;;;;5034203;28;20115;-77
2023/01/11 12:50:26;;;;;;;1.05;0.70;;;;;;;;;;5034897;28;20045;-76
2023/01/11 12:53:01;;;;;;;1.67;0.90;;;;;;;;;;5034353;28;20088;-76
2023/01/11 12:55:46;;;;;;;1.25;0.68;;;;;;;;;;5034120;28;20045;-76
2023/01/11 12:58:31;;;;;;;0.45;0.40;;;;;;;;;;5034552;28;20033;-76
2023/01/11 13:01:11;;;;;;;0.73;0.50;;;;;;;;;;5034356;28;20037;-77
2023/01/11 13:03:56;;;;;;;0.60;0.52;;;;;;;;;;5034648;28;20129;-75
2023/01/11 13:06:28;;;;;;;1.15;0.95;;;;;;;;;;5033838;28;20068;-76
2023/01/11 13:09:13;;;;;;;1.33;0.65;;;;;;;;;;5028721;28;20045;-77
2023/01/11 13:11:41;;;;;;;0.52;0.30;;;;;;;;;;5053546;28;20495;-75
2023/01/11 13:14:13;;;;;;;0.40;0.40;;;;;;;;;;5052436;28;20391;-75
2023/01/11 13:16:45;;;;;;;1.30;0.98;;;;;;;;;;5052739;28;20103;-77
2023/01/11 13:19:18;;;;;;;2.17;0.90;;;;;;;;;;5053173;28;20127;-74
2023/01/11 13:21:52;;;;;;;1.10;0.80;;;;;;;;;;5053385;28;20044;-75
2023/01/11 13:24:27;;;;;;;1.55;0.50;;;;;;;;;;5053312;28;20107;-75
2023/01/11 13:26:54;;;;;;;1.10;0.40;;;;;;;;;;5053576;28;20561;-75
2023/01/11 13:29:32;;;;;;;0.75;0.40;;;;;;;;;;5052892;28;20040;-74
2023/01/11 13:32:00;;;;;;;3.05;0.80;;;;;;;;;;5052764;28;20072;-77
2023/01/11 13:34:29;;;;;;;2.33;0.80;;;;;;;;;;5052834;28;20032;-74
2023/01/11 13:36:58;;;;;;;1.70;0.60;;;;;;;;;;5053432;28;20119;-75
2023/01/11 13:39:32;;;;;;;2.20;1.02;;;;;;;;;;5056282;28;20091;-77
2023/01/11 13:42:02;;;;;;;2.92;0.57;;;;;;;;;;5056592;28;20080;-77
2023/01/11 13:44:33;;;;;;;1.77;0.93;;;;;;;;;;5056860;28;20061;-77
2023/01/11 13:47:03;;;;;;;1.98;0.80;;;;;;;;;;5056077;28;20036;-77
2023/01/11 13:49:44;;;;;;;4.43;0.80;;;;;;;;;;5056487;28;20037;-75
2023/01/11 13:52:14;;;;;;;2.90;1.23;;;;;;;;;;5055193;28;20084;-75
2023/01/11 13:54:59;;;;;;;1.27;0.68;;;;;;;;;;5056827;28;20060;-78
2023/01/11 13:57:25;;;;;;;2.92;0.90;;;;;;;;;;5056863;28;20044;-77
2023/01/11 13:59:54;;;;;;;3.08;0.77;;;;;;;;;;5056188;28;20098;-78
2023/01/11 14:02:35;;;;;;;2.72;1.00;;;;;;;;;;5055795;28;20045;-77
2023/01/11 14:05:20;;;;;;;2.78;0.93;;;;;;;;;;5055985;28;20533;-78
2023/01/11 14:07:59;;;;;;;7.25;1.35;;;;;;;;;;5055910;28;20070;-78
2023/01/11 14:10:39;;;;;;;2.25;1.02;;;;;;;;;;5056418;28;20041;-78
2023/01/11 14:13:05;;;;;;;3.20;1.08;;;;;;;;;;5056308;28;20039;-78
2023/01/11 14:15:43;;;;;;;6.45;1.20;;;;;;;;;;5035819;28;20159;-77
2023/01/11 14:18:24;;;;;;;4.80;1.60;;;;;;;;;;5035871;28;20069;-77
2023/01/11 14:20:58;;;;;;;3.85;1.35;;;;;;;;;;5036191;28;20053;-76
2023/01/11 14:23:39;;;;;;;5.78;1.77;;;;;;;;;;5028797;28;20081;-75
2023/01/11 14:26:05;;;;;;;;;;;;;;;;;;5020977;28;20133;-76
2023/01/11 14:28:43;;;;;;;3.45;1.10;;;;;;;;;;5016334;28;19953;-77
2023/01/11 14:31:14;;;;;;;3.38;1.20;;;;;;;;;;5015441;28;20054;-79
2023/01/11 14:33:43;;;;;;;3.47;1.48;;;;;;;;;;5016459;28;20519;-78
2023/01/11 14:36:28;;;;;;;4.25;1.67;;;;;;;;;;5050213;28;20504;-77
2023/01/11 14:39:13;;;;;;;3.08;1.25;;;;;;;;;;5033753;28;20131;-77
2023/01/11 14:41:48;;;;;;;1.75;0.63;;;;;;;;;;5035101;28;20041;-78
2023/01/11 14:44:24;;;;;;;3.85;1.80;;;;;;;;;;5034129;28;20037;-77
2023/01/11 14:46:55;;;;;;;3.90;1.88;;;;;;;;;;5035351;28;20549;-77
2023/01/11 14:49:34;;;;;;;3.92;1.73;;;;;;;;;;5033140;28;20041;-77
2023/01/11 14:52:03;;;;;;;6.45;2.35;;;;;;;;;;5033851;28;20099;-77
2023/01/11 14:54:35;;;;;;;4.35;1.30;;;;;;;;;;5034090;28;20407;-77
2023/01/11 14:57:01;;;;;;;5.07;1.30;;;;;;;;;;5035687;28;20095;-77
2023/01/11 14:59:30;;;;;;;5.70;1.30;;;;;;;;;;5035241;28;20041;-77
2023/01/11 15:02:03;;;;;;;5.93;2.40;;;;;;;;;;5035149;28;20492;-77
2023/01/11 15:04:35;;;;;;;6.57;2.42;;;;;;;;;;5035072;28;20094;-77
2023/01/11 15:07:02;;;;;;;7.97;2.95;;;;;;;;;;5035790;28;20037;-78
2023/01/11 15:09:48;;;;;;;10.50;4.07;;;;;;;;;;5035173;28;20038;-78
2023/01/11 15:12:18;;;;;;;10.07;2.90;;;;;;;;;;5034675;28;20128;-78
2023/01/11 15:14:49;;;;;;;8.82;3.05;;;;;;;;;;5034121;28;20037;-78
2023/01/11 15:20:12;;;;;;;9.88;2.45;;;;;;;;;;5034979;28;20088;-77
2023/01/11 15:22:39;;;;;;;12.32;4.13;;;;;;;;;;5034456;28;20083;-77
2023/01/11 15:25:22;;;;;;;11.23;3.33;;;;;;;;;;5033405;28;20089;-77
2023/01/11 15:27:49;;;;;;;6.95;1.90;;;;;;;;;;5034514;28;20033;-77